createdAt,value
2023-04-02T00:01:51.622Z,99727.41
2023-04-02T00:04:23.097Z,99734.44
2023-04-02T00:07:15.326Z,99721.91
2023-04-02T00:09:42.084Z,99737.13
2023-04-02T00:12:18.120Z,99740.66
2023-04-02T00:14:54.827Z,99748.69
2023-04-02T00:17:24.651Z,99752.19
2023-04-02T00:19:53.175Z,99747.69
2023-04-02T00:22:22.639Z,99746.00
2023-04-02T00:24:54.157Z,99752.50
2023-04-02T00:27:21.323Z,99757.56
2023-04-02T00:29:58.236Z,99754.19
2023-04-02T00:32:27.431Z,99762.38
2023-04-02T00:34:55.477Z,99762.22
2023-04-02T00:37:28.245Z,99758.97
2023-04-02T00:40:07.062Z,99757.03
2023-04-02T00:42:35.833Z,99759.75
2023-04-02T00:45:02.648Z,99764.38
2023-04-02T00:47:36.520Z,99761.84
2023-04-02T00:50:18.412Z,99766.78
2023-04-02T00:52:48.040Z,99776.66
2023-04-02T00:55:27.050Z,99767.78
2023-04-02T00:58:01.078Z,99766.22
2023-04-02T01:00:30.711Z,99772.56
2023-04-02T01:03:13.013Z,99778.06
2023-04-02T01:05:42.375Z,99769.34
2023-04-02T01:08:25.802Z,99770.63
2023-04-02T01:11:24.053Z,99786.66
2023-04-02T01:14:12.065Z,99784.69
2023-04-02T01:16:50.625Z,99786.97
2023-04-02T01:19:35.473Z,99777.94
2023-04-02T01:22:23.103Z,99788.66
2023-04-02T01:24:49.773Z,99789.50
2023-04-02T01:27:26.597Z,99790.66
2023-04-02T01:29:56.659Z,99798.81
2023-04-02T01:32:25.766Z,99790.34
2023-04-02T01:34:52.879Z,99803.03
2023-04-02T01:37:52.670Z,99798.22
2023-04-02T01:40:40.231Z,99801.47
2023-04-02T01:43:54.976Z,99808.34
2023-04-02T01:46:31.985Z,99813.84
2023-04-02T01:49:02.542Z,99823.88
2023-04-02T01:51:33.847Z,99822.03
2023-04-02T01:54:06.090Z,99821.31
2023-04-02T01:56:32.625Z,99816.41
2023-04-02T01:59:00.291Z,99823.88
2023-04-02T02:01:42.267Z,99821.47
2023-04-02T02:04:13.747Z,99834.84
2023-04-02T02:06:40.866Z,99831.47
2023-04-02T02:09:12.003Z,99835.16
2023-04-02T02:11:38.918Z,99836.00
2023-04-02T02:14:12.803Z,99837.97
2023-04-02T02:16:42.089Z,99831.78
2023-04-02T02:19:21.677Z,99828.38
2023-04-02T02:21:58.371Z,99839.09
2023-04-02T02:24:28.436Z,99846.16
2023-04-02T02:27:16.364Z,99854.88
2023-04-02T02:29:43.575Z,99849.53
2023-04-02T02:32:12.658Z,99858.53
2023-04-02T02:34:43.409Z,99853.88
2023-04-02T02:37:19.046Z,99865.72
2023-04-02T02:39:51.482Z,99864.16
2023-04-02T02:42:30.544Z,99868.69
2023-04-02T02:44:58.362Z,99870.34
2023-04-02T02:47:38.069Z,99874.88
2023-04-02T02:50:12.086Z,99876.56
2023-04-02T02:52:39.060Z,99872.50
2023-04-02T02:55:12.941Z,99873.47
2023-04-02T02:57:46.972Z,99883.63
2023-04-02T03:00:16.125Z,99884.75
2023-04-02T03:02:44.310Z,99887.28
2023-04-02T03:05:17.497Z,99891.94
2023-04-02T03:07:44.036Z,99890.41
2023-04-02T03:10:33.167Z,99896.00
2023-04-02T03:13:13.042Z,99903.19
2023-04-02T03:15:57.229Z,99899.28
2023-04-02T03:18:31.388Z,99908.16
2023-04-02T03:21:09.789Z,99907.84
2023-04-02T03:23:43.699Z,99894.91
2023-04-02T03:26:13.489Z,99912.91
2023-04-02T03:28:43.536Z,99925.34
2023-04-02T03:31:22.688Z,99925.19
2023-04-02T03:33:56.738Z,99927.41
2023-04-02T03:36:34.484Z,99929.81
2023-04-02T03:39:17.975Z,99934.06
2023-04-02T03:42:03.709Z,99943.91
2023-04-02T03:44:37.906Z,99944.03
2023-04-02T03:47:12.912Z,99940.50
2023-04-02T03:49:52.342Z,99952.78
2023-04-02T03:52:29.367Z,99950.09
2023-04-02T03:54:58.549Z,99947.84
2023-04-02T03:57:31.896Z,99965.31
2023-04-02T04:00:02.357Z,99964.47
2023-04-02T04:02:34.841Z,99970.09
2023-04-02T04:05:03.154Z,99975.28
2023-04-02T04:07:43.391Z,99981.63
2023-04-02T04:10:18.252Z,99984.03
2023-04-02T04:12:48.204Z,99984.75
2023-04-02T04:15:36.233Z,99983.59
2023-04-02T04:18:21.453Z,99990.78
2023-04-02T04:20:56.932Z,99998.81
2023-04-02T04:23:37.503Z,99996.41
2023-04-02T04:26:19.720Z,99994.28
2023-04-02T04:29:05.728Z,100012.47
2023-04-02T04:31:39.455Z,100010.06
2023-04-02T04:34:12.992Z,100014.41
2023-04-02T04:36:54.238Z,100017.81
2023-04-02T04:39:29.621Z,100030.78
2023-04-02T04:42:00.594Z,100030.06
2023-04-02T04:44:44.951Z,100032.03
2023-04-02T04:47:26.956Z,100035.13
2023-04-02T04:50:15.876Z,100038.78
2023-04-02T04:52:43.859Z,100042.28
2023-04-02T04:55:27.573Z,100045.66
2023-04-02T04:58:03.902Z,100052.00
2023-04-02T05:00:53.319Z,100053.97
2023-04-02T05:03:41.055Z,100054.81
2023-04-02T05:06:18.746Z,100058.47
2023-04-02T05:08:49.041Z,100058.88
2023-04-02T05:11:28.046Z,100059.03
2023-04-02T05:13:59.563Z,100062.69
2023-04-02T05:17:00.426Z,100069.72
2023-04-02T05:19:47.742Z,100075.22
2023-04-02T05:22:31.431Z,100080.41
2023-04-02T05:25:28.457Z,100077.31
2023-04-02T05:28:31.258Z,100083.09
2023-04-02T05:31:08.876Z,100086.63
2023-04-02T05:33:37.501Z,100098.16
2023-04-02T05:36:09.343Z,100100.44
2023-04-02T05:38:38.783Z,100102.97
2023-04-02T05:41:18.437Z,100108.19
2023-04-02T05:43:51.007Z,100113.28
2023-04-02T05:46:24.085Z,100112.28
2023-04-02T05:48:56.637Z,100119.91
2023-04-02T05:51:30.579Z,100115.38
2023-04-02T05:54:00.894Z,100125.00
2023-04-02T05:56:32.163Z,100128.50
2023-04-02T05:59:25.610Z,100128.22
2023-04-02T06:02:04.251Z,100128.53
2023-04-02T06:04:46.374Z,100140.09
2023-04-02T06:07:15.739Z,100140.25
2023-04-02T06:09:49.158Z,100136.81
2023-04-02T06:12:37.665Z,100155.47
2023-04-02T06:15:06.680Z,100143.78
2023-04-02T06:17:53.708Z,100155.50
2023-04-02T06:20:21.178Z,100166.91
2023-04-02T06:23:02.300Z,100172.13
2023-04-02T06:25:33.705Z,100179.31
2023-04-02T06:28:03.958Z,100176.78
2023-04-02T06:30:34.896Z,100166.50
2023-04-02T06:33:01.427Z,100183.44
2023-04-02T06:35:28.142Z,100191.88
2023-04-02T06:37:57.391Z,100197.25
2023-04-02T06:40:44.063Z,100200.66
2023-04-02T06:43:35.659Z,100204.59
2023-04-02T06:46:08.689Z,100209.81
2023-04-02T06:48:37.717Z,100221.50
2023-04-02T06:51:08.368Z,100220.97
2023-04-02T06:53:38.831Z,100231.41
2023-04-02T06:56:19.538Z,100228.78
2023-04-02T06:58:46.124Z,100231.84
2023-04-02T07:01:19.633Z,100247.53
2023-04-02T07:03:49.265Z,100244.28
2023-04-02T07:06:19.710Z,100250.38
2023-04-02T07:08:46.685Z,100250.47
2023-04-02T07:11:21.208Z,100267.31
2023-04-02T07:13:48.859Z,100264.63
2023-04-02T07:16:21.002Z,100272.69
2023-04-02T07:18:48.534Z,100273.22
2023-04-02T07:21:14.849Z,100282.56
2023-04-02T07:23:41.806Z,100291.28
2023-04-02T07:26:12.827Z,100307.69
2023-04-02T07:28:39.391Z,100309.03
2023-04-02T07:31:15.590Z,100330.56
2023-04-02T07:33:42.237Z,100332.75
2023-04-02T07:36:14.021Z,100343.22
2023-04-02T07:38:40.366Z,100339.72
2023-04-02T07:41:07.281Z,100342.34
2023-04-02T07:43:33.751Z,100348.28
2023-04-02T07:46:00.731Z,100358.13
2023-04-02T07:48:27.560Z,100363.03
2023-04-02T07:50:53.873Z,100369.44
2023-04-02T07:53:32.618Z,100365.56
2023-04-02T07:56:02.031Z,100368.59
2023-04-02T07:58:30.816Z,100372.75
2023-04-02T08:00:58.765Z,100376.16
2023-04-02T08:03:25.457Z,100388.78
2023-04-02T08:05:54.101Z,100388.06
2023-04-02T08:08:21.615Z,100395.22
2023-04-02T08:10:49.122Z,100399.59
2023-04-02T08:13:16.918Z,100399.34
2023-04-02T08:15:43.843Z,100408.72
2023-04-02T08:18:11.581Z,100410.75
2023-04-02T08:20:38.184Z,100414.06
2023-04-02T08:23:06.868Z,100424.59
2023-04-02T08:25:33.453Z,100432.50
2023-04-02T08:28:01.484Z,100433.09
2023-04-02T08:30:27.838Z,100435.50
2023-04-02T08:32:54.342Z,100444.25
2023-04-02T08:35:20.795Z,100440.59
2023-04-02T08:37:47.149Z,100455.66
2023-04-02T08:40:38.727Z,100461.72
2023-04-02T08:43:30.922Z,100473.34
2023-04-02T08:46:06.540Z,100475.53
2023-04-02T08:48:36.266Z,100479.16
2023-04-02T08:51:04.709Z,100486.59
2023-04-02T08:53:35.662Z,100486.84
2023-04-02T08:56:17.548Z,100494.97
2023-04-02T08:58:45.980Z,100493.75
2023-04-02T09:01:32.769Z,100498.88
2023-04-02T09:03:59.437Z,100503.97
2023-04-02T09:06:27.742Z,100519.72
2023-04-02T09:08:56.529Z,100503.69
2023-04-02T09:11:54.950Z,100527.28
2023-04-02T09:14:35.951Z,100528.59
2023-04-02T09:17:08.889Z,100528.97
2023-04-02T09:19:44.898Z,100529.22
2023-04-02T09:22:27.007Z,100547.91
2023-04-02T09:25:01.522Z,100534.06
2023-04-02T09:27:31.389Z,100550.81
2023-04-02T09:30:03.980Z,100564.41
2023-04-02T09:32:39.770Z,100566.25
2023-04-02T09:35:26.185Z,100578.28
2023-04-02T09:38:18.209Z,100578.91
2023-04-02T09:40:58.753Z,100580.00
2023-04-02T09:43:28.013Z,100578.41
2023-04-02T09:46:06.407Z,100590.66
2023-04-02T09:48:55.665Z,100589.69
2023-04-02T09:51:24.567Z,100592.50
2023-04-02T09:54:06.820Z,100598.72
2023-04-02T09:56:38.019Z,100597.72
2023-04-02T09:59:21.734Z,100610.16
2023-04-02T10:01:54.190Z,100616.69
2023-04-02T10:04:39.062Z,100622.97
2023-04-02T10:07:06.447Z,100626.97
2023-04-02T10:09:36.246Z,100636.34
2023-04-02T10:12:07.220Z,100645.72
2023-04-02T10:14:38.519Z,100647.63
2023-04-02T10:17:31.433Z,100654.63
2023-04-02T10:20:11.698Z,100659.69
2023-04-02T10:22:38.654Z,100662.50
2023-04-02T10:25:14.452Z,100660.94
2023-04-02T10:27:45.823Z,100669.09
2023-04-02T10:30:23.978Z,100680.88
2023-04-02T10:32:58.253Z,100688.38
2023-04-02T10:36:01.894Z,100682.03
2023-04-02T10:38:42.557Z,100691.47
2023-04-02T10:41:26.817Z,100703.13
2023-04-02T10:44:20.108Z,100705.50
2023-04-02T10:47:28.441Z,100707.44
2023-04-02T10:50:29.550Z,100716.81
2023-04-02T10:53:14.301Z,100717.56
2023-04-02T10:55:48.219Z,100704.88
2023-04-02T10:58:25.583Z,100722.72
2023-04-02T11:00:57.888Z,100737.31
2023-04-02T11:03:34.987Z,100739.66
2023-04-02T11:06:12.107Z,100742.03
2023-04-02T11:08:43.582Z,100732.53
2023-04-02T11:11:26.287Z,100752.88
2023-04-02T11:13:58.608Z,100752.63
2023-04-02T11:16:25.652Z,100751.41
2023-04-02T11:19:16.827Z,100769.09
2023-04-02T11:22:00.231Z,100763.16
2023-04-02T11:24:58.149Z,100769.19
2023-04-02T11:27:27.904Z,100768.66
2023-04-02T11:30:14.237Z,100778.66
2023-04-02T11:32:43.033Z,100783.53
2023-04-02T11:35:31.283Z,100802.53
2023-04-02T11:38:00.696Z,100799.59
2023-04-02T11:40:57.089Z,100799.59
2023-04-02T11:43:32.604Z,100810.50
2023-04-02T11:46:25.408Z,100808.63
2023-04-02T11:48:54.550Z,100820.75
2023-04-02T11:51:43.521Z,100825.53
2023-04-02T11:54:25.550Z,100825.19
2023-04-02T11:57:00.745Z,100829.03
2023-04-02T11:59:35.946Z,100827.06
2023-04-02T12:02:02.337Z,100829.44
2023-04-02T12:04:37.836Z,100838.03
2023-04-02T12:07:06.901Z,100848.44
2023-04-02T12:09:59.591Z,100840.53
2023-04-02T12:12:27.480Z,100852.88
2023-04-02T12:14:56.266Z,100855.56
2023-04-02T12:17:36.867Z,100849.44
2023-04-02T12:20:20.331Z,100871.34
2023-04-02T12:22:50.575Z,100866.91
2023-04-02T12:25:29.847Z,100870.22
2023-04-02T12:28:11.386Z,100879.53
2023-04-02T12:30:38.735Z,100884.03
2023-04-02T12:33:33.395Z,100882.34
2023-04-02T12:36:02.139Z,100901.22
2023-04-02T12:38:33.336Z,100896.72
2023-04-02T12:41:03.455Z,100898.59
2023-04-02T12:43:31.867Z,100903.41
2023-04-02T12:46:00.972Z,100905.78
2023-04-02T12:48:29.146Z,100904.81
2023-04-02T12:50:56.822Z,100909.38
2023-04-02T12:53:32.444Z,100909.28
2023-04-02T12:55:58.989Z,100909.88
2023-04-02T12:58:36.008Z,100906.63
2023-04-02T13:01:15.635Z,100924.47
2023-04-02T13:03:42.166Z,100926.19
2023-04-02T13:06:22.280Z,100941.50
2023-04-02T13:08:48.969Z,100934.66
2023-04-02T13:11:15.800Z,100930.81
2023-04-02T13:13:45.841Z,100934.28
2023-04-02T13:16:15.275Z,100943.19
2023-04-02T13:18:43.261Z,100939.91
2023-04-02T13:21:19.331Z,100940.09
2023-04-02T13:23:46.471Z,100940.03
2023-04-02T13:26:18.535Z,100947.06
2023-04-02T13:29:15.386Z,100944.28
2023-04-02T13:31:41.952Z,100949.44
2023-04-02T13:34:08.383Z,100950.38
2023-04-02T13:36:34.909Z,100950.31
2023-04-02T13:39:01.282Z,100960.81
2023-04-02T13:41:34.716Z,100950.91
2023-04-02T13:44:03.091Z,100968.88
2023-04-02T13:46:31.946Z,100968.44
2023-04-02T13:48:58.768Z,100970.81
2023-04-02T13:51:35.819Z,100981.19
2023-04-02T13:54:03.777Z,100972.53
2023-04-02T13:56:31.119Z,100988.34
2023-04-02T13:58:57.520Z,100991.41
2023-04-02T14:01:25.026Z,100988.53
2023-04-02T14:03:54.223Z,101006.59
2023-04-02T14:06:57.622Z,101001.03
2023-04-02T14:09:38.982Z,101006.53
2023-04-02T14:12:28.405Z,101015.00
2023-04-02T14:15:15.592Z,101009.66
2023-04-02T14:17:51.129Z,101015.66
2023-04-02T14:20:17.840Z,101020.56
2023-04-02T14:23:06.333Z,101023.97
2023-04-02T14:25:39.148Z,101026.97
2023-04-02T14:28:57.775Z,101006.88
2023-04-02T14:31:33.951Z,101029.94
2023-04-02T14:34:02.961Z,101025.47
2023-04-02T14:36:38.145Z,101036.56
2023-04-02T14:39:32.929Z,101041.34
2023-04-02T14:42:09.211Z,101052.66
2023-04-02T14:44:42.345Z,101053.81
2023-04-02T14:47:17.531Z,101053.91
2023-04-02T14:49:49.476Z,101043.31
2023-04-02T14:52:21.354Z,101066.72
2023-04-02T14:54:55.227Z,101077.34
2023-04-02T14:57:32.373Z,101062.88
2023-04-02T15:00:25.358Z,101075.00
2023-04-02T15:03:19.315Z,101064.84
2023-04-02T15:05:49.433Z,101090.63
2023-04-02T15:08:20.784Z,101088.00
2023-04-02T15:11:06.588Z,101091.69
2023-04-02T15:13:43.819Z,101093.28
2023-04-02T15:16:22.557Z,101098.66
2023-04-02T15:18:55.051Z,101103.00
2023-04-02T15:21:29.732Z,101102.41
2023-04-02T15:24:04.497Z,101103.38
2023-04-02T15:26:40.298Z,101096.69
2023-04-02T15:29:40.562Z,101114.00
2023-04-02T15:32:31.277Z,101118.34
2023-04-02T15:35:16.469Z,101125.19
2023-04-02T15:37:55.838Z,101126.38
2023-04-02T15:40:35.514Z,101123.31
2023-04-02T15:43:16.118Z,101123.69
2023-04-02T15:45:53.360Z,101127.88
2023-04-02T15:48:38.134Z,101140.75
2023-04-02T15:51:35.803Z,101141.03
2023-04-02T15:54:21.850Z,101139.53
2023-04-02T15:57:24.472Z,101152.56
2023-04-02T16:00:02.734Z,101160.94
2023-04-02T16:03:06.666Z,101155.16
2023-04-02T16:06:00.577Z,101161.44
2023-04-02T16:08:45.777Z,101167.78
2023-04-02T16:11:14.369Z,101174.75
2023-04-02T16:13:42.209Z,101176.19
2023-04-02T16:16:21.036Z,101174.16
2023-04-02T16:18:59.219Z,101176.63
2023-04-02T16:21:32.442Z,101187.22
2023-04-02T16:23:59.113Z,101186.53
2023-04-02T16:26:28.202Z,101190.25
2023-04-02T16:29:07.415Z,101196.06
2023-04-02T16:32:07.768Z,101198.44
2023-04-02T16:34:52.938Z,101204.78
2023-04-02T16:37:39.003Z,101209.34
2023-04-02T16:40:57.185Z,101211.44
2023-04-02T16:43:49.674Z,101220.22
2023-04-02T16:46:54.506Z,101237.56
2023-04-02T16:49:30.375Z,101235.44
2023-04-02T16:52:19.479Z,101244.94
2023-04-02T16:55:11.378Z,101247.53
2023-04-02T16:57:57.643Z,101252.19
2023-04-02T17:00:31.931Z,101260.44
2023-04-02T17:02:58.359Z,101271.72
2023-04-02T17:05:51.436Z,101280.41
2023-04-02T17:08:24.163Z,101281.16
2023-04-02T17:11:07.379Z,101292.94
2023-04-02T17:13:41.468Z,101293.28
2023-04-02T17:16:19.814Z,101297.81
2023-04-02T17:18:58.221Z,101300.25
2023-04-02T17:21:27.512Z,101312.50
2023-04-02T17:24:02.674Z,101313.81
2023-04-02T17:26:32.287Z,101326.53
2023-04-02T17:29:05.712Z,101336.66
2023-04-02T17:31:37.243Z,101322.59
2023-04-02T17:34:13.647Z,101339.06
2023-04-02T17:36:53.517Z,101345.00
2023-04-02T17:39:35.467Z,101346.13
2023-04-02T17:42:37.059Z,101353.59
2023-04-02T17:45:19.607Z,101357.78
2023-04-02T17:47:56.285Z,101363.31
2023-04-02T17:50:25.608Z,101364.75
2023-04-02T17:53:00.941Z,101371.28
2023-04-02T17:55:54.469Z,101368.09
2023-04-02T17:58:58.485Z,101380.41
2023-04-02T18:01:30.356Z,101381.25
2023-04-02T18:04:36.192Z,101383.63
2023-04-02T18:07:24.140Z,101388.78
2023-04-02T18:10:03.694Z,101393.50
2023-04-02T18:12:56.828Z,101402.88
2023-04-02T18:15:47.342Z,101411.63
2023-04-02T18:18:35.196Z,101414.09
2023-04-02T18:21:14.841Z,101423.28
2023-04-02T18:24:02.184Z,101429.53
2023-04-02T18:26:52.273Z,101430.56
2023-04-02T18:29:51.144Z,101436.66
2023-04-02T18:32:35.573Z,101443.94
2023-04-02T18:35:44.294Z,101447.22
2023-04-02T18:38:42.415Z,101451.91
2023-04-02T18:41:46.207Z,101451.00
2023-04-02T18:44:51.586Z,101474.06
2023-04-02T18:48:08.590Z,101460.16
2023-04-02T18:50:39.192Z,101481.44
2023-04-02T18:53:21.636Z,101487.81
2023-04-02T18:56:16.638Z,101485.06
2023-04-02T18:58:56.693Z,101486.94
2023-04-02T19:01:30.568Z,101487.22
2023-04-02T19:04:03.726Z,101488.78
2023-04-02T19:06:44.698Z,101496.38
2023-04-02T19:09:16.730Z,101501.97
2023-04-02T19:11:43.100Z,101502.19
2023-04-02T19:14:16.521Z,101507.28
2023-04-02T19:17:13.660Z,101516.97
2023-04-02T19:19:51.828Z,101513.78
2023-04-02T19:22:53.643Z,101524.41
2023-04-02T19:25:35.683Z,101528.22
2023-04-02T19:28:46.313Z,101523.94
2023-04-02T19:31:31.384Z,101537.03
2023-04-02T19:34:09.992Z,101538.19
2023-04-02T19:36:45.731Z,101548.81
2023-04-02T19:39:35.410Z,101529.88
2023-04-02T19:42:28.381Z,101551.69
2023-04-02T19:44:55.314Z,101554.44
2023-04-02T19:47:22.413Z,101567.38
2023-04-02T19:49:48.802Z,101556.13
2023-04-02T19:52:15.358Z,101572.75
2023-04-02T19:54:41.950Z,101570.41
2023-04-02T19:57:13.814Z,101580.91
2023-04-02T19:59:40.289Z,101574.00
2023-04-02T20:02:10.219Z,101577.44
2023-04-02T20:04:36.986Z,101572.28
2023-04-02T20:07:03.438Z,101573.06
2023-04-02T20:09:29.802Z,101579.25
2023-04-02T20:11:56.190Z,101575.03
2023-04-02T20:14:22.550Z,101581.97
2023-04-02T20:16:48.906Z,101576.50
2023-04-02T20:19:15.562Z,101573.63
2023-04-02T20:21:42.089Z,101588.91
2023-04-02T20:24:08.787Z,101588.81
2023-04-02T20:26:36.178Z,101589.81
2023-04-02T20:29:02.893Z,101600.63
2023-04-02T20:31:29.395Z,101598.25
2023-04-02T20:33:56.913Z,101602.03
2023-04-02T20:36:24.646Z,101601.00
2023-04-02T20:38:51.890Z,101611.81
2023-04-02T20:41:18.995Z,101609.22
2023-04-02T20:43:45.449Z,101614.84
2023-04-02T20:46:12.681Z,101622.63
2023-04-02T20:48:39.904Z,101626.13
2023-04-02T20:51:08.473Z,101623.47
2023-04-02T20:53:36.347Z,101636.78
2023-04-02T20:56:07.700Z,101641.16
2023-04-02T20:58:35.931Z,101643.81
2023-04-02T21:01:29.670Z,101647.34
2023-04-02T21:04:01.616Z,101644.59
2023-04-02T21:06:30.691Z,101647.25
2023-04-02T21:08:57.407Z,101646.75
2023-04-02T21:11:24.216Z,101651.88
2023-04-02T21:13:50.832Z,101650.38
2023-04-02T21:16:20.701Z,101646.94
2023-04-02T21:18:49.549Z,101655.28
2023-04-02T21:21:17.098Z,101661.72
2023-04-02T21:23:44.275Z,101652.97
2023-04-02T21:26:16.245Z,101665.47
2023-04-02T21:28:44.345Z,101659.44
2023-04-02T21:31:16.900Z,101646.66
2023-04-02T21:33:48.505Z,101654.69
2023-04-02T21:36:16.208Z,101666.41
2023-04-02T21:38:44.625Z,101664.47
2023-04-02T21:41:15.370Z,101673.59
2023-04-02T21:43:42.950Z,101671.06
2023-04-02T21:46:10.319Z,101672.06
2023-04-02T21:48:37.390Z,101665.75
2023-04-02T21:51:09.462Z,101675.72
2023-04-02T21:53:36.146Z,101669.63
2023-04-02T21:56:04.622Z,101669.63
2023-04-02T21:58:31.389Z,101666.31
2023-04-02T22:00:58.897Z,101667.03
2023-04-02T22:03:31.653Z,101664.25
2023-04-02T22:06:07.245Z,101671.78
2023-04-02T22:08:35.501Z,101653.44
2023-04-02T22:11:13.154Z,101666.69
2023-04-02T22:13:40.921Z,101669.91
2023-04-02T22:16:16.067Z,101672.66
2023-04-02T22:18:43.651Z,101675.53
2023-04-02T22:21:11.492Z,101669.63
2023-04-02T22:23:39.028Z,101676.59
2023-04-02T22:26:07.085Z,101669.81
2023-04-02T22:28:34.333Z,101669.03
2023-04-02T22:31:27.885Z,101668.97
2023-04-02T22:33:56.252Z,101674.34
2023-04-02T22:36:24.098Z,101668.75
2023-04-02T22:38:51.051Z,101672.91
2023-04-02T22:41:21.377Z,101673.91
2023-04-02T22:43:48.305Z,101675.72
2023-04-02T22:46:16.396Z,101675.13
2023-04-02T22:48:44.055Z,101674.34
2023-04-02T22:51:12.040Z,101678.13
2023-04-02T22:53:39.335Z,101671.31
2023-04-02T22:56:11.846Z,101675.97
2023-04-02T22:58:38.848Z,101674.31
2023-04-02T23:01:32.428Z,101673.91
2023-04-02T23:03:59.276Z,101685.81
2023-04-02T23:06:26.729Z,101672.00
2023-04-02T23:08:53.278Z,101686.28
2023-04-02T23:11:24.627Z,101684.75
2023-04-02T23:13:52.643Z,101680.06
2023-04-02T23:16:19.980Z,101679.13
2023-04-02T23:18:48.047Z,101681.63
2023-04-02T23:21:15.929Z,101680.66
2023-04-02T23:23:42.312Z,101684.09
2023-04-02T23:26:17.418Z,101675.38
2023-04-02T23:28:44.456Z,101674.59
2023-04-02T23:31:14.027Z,101686.88
2023-04-02T23:33:40.476Z,101685.75
2023-04-02T23:36:09.029Z,101681.44
2023-04-02T23:38:35.643Z,101682.94
2023-04-02T23:41:02.070Z,101682.03
2023-04-02T23:43:28.424Z,101687.28
2023-04-02T23:45:55.071Z,101677.44
2023-04-02T23:48:21.523Z,101685.25
2023-04-02T23:50:48.012Z,101681.03
2023-04-02T23:53:16.355Z,101676.50
2023-04-02T23:55:42.772Z,101692.28
2023-04-02T23:58:09.114Z,101689.16
